createdAt,value
2022-12-27T00:01:29.392Z,11.23
2022-12-27T00:03:56.170Z,11.27
2022-12-27T00:06:24.919Z,11.65
2022-12-27T00:08:51.945Z,11.77
2022-12-27T00:11:21.616Z,11.43
2022-12-27T00:13:48.406Z,12.32
2022-12-27T00:16:17.465Z,11.55
2022-12-27T00:18:43.979Z,11.82
2022-12-27T00:21:12.128Z,13.02
2022-12-27T00:23:42.070Z,11.65
2022-12-27T00:26:14.161Z,12.23
2022-12-27T00:28:40.875Z,10.77
2022-12-27T00:31:08.378Z,11.27
2022-12-27T00:33:36.603Z,11.23
2022-12-27T00:36:06.361Z,11.27
2022-12-27T00:38:33.092Z,11.52
2022-12-27T00:41:00.225Z,11.40
2022-12-27T00:43:27.333Z,12.30
2022-12-27T00:45:53.948Z,11.02
2022-12-27T00:48:20.419Z,11.45
2022-12-27T00:50:46.955Z,10.95
2022-12-27T00:53:13.419Z,11.77
2022-12-27T00:55:43.870Z,10.68
2022-12-27T00:58:10.741Z,12.27
2022-12-27T01:00:37.485Z,10.93
2022-12-27T01:03:04.319Z,11.32
2022-12-27T01:05:30.908Z,11.75
2022-12-27T01:07:57.366Z,11.48
2022-12-27T01:10:24.759Z,11.52
2022-12-27T01:12:51.450Z,11.70
2022-12-27T01:15:17.916Z,11.60
2022-12-27T01:17:44.325Z,10.68
2022-12-27T01:20:10.988Z,11.77
2022-12-27T01:22:37.531Z,11.25
2022-12-27T01:25:04.814Z,12.52
2022-12-27T01:27:31.225Z,12.13
2022-12-27T01:29:57.648Z,11.82
2022-12-27T01:32:24.073Z,11.80
2022-12-27T01:34:51.267Z,11.80
2022-12-27T01:37:17.708Z,12.25
2022-12-27T01:39:44.244Z,11.15
2022-12-27T01:42:37.468Z,11.27
2022-12-27T01:45:13.912Z,12.88
2022-12-27T01:47:49.291Z,12.27
2022-12-27T01:50:24.917Z,11.80
2022-12-27T01:53:19.053Z,11.25
2022-12-27T01:55:48.398Z,12.52
2022-12-27T01:58:19.916Z,12.73
2022-12-27T02:00:48.394Z,11.73
2022-12-27T02:03:22.130Z,12.05
2022-12-27T02:05:49.407Z,12.20
2022-12-27T02:08:52.256Z,12.50
2022-12-27T02:11:42.913Z,12.50
2022-12-27T02:14:11.018Z,13.13
2022-12-27T02:16:37.457Z,11.90
2022-12-27T02:19:12.477Z,12.90
2022-12-27T02:22:09.228Z,11.73
2022-12-27T02:25:00.275Z,12.00
2022-12-27T02:27:58.635Z,11.73
2022-12-27T02:30:25.573Z,12.65
2022-12-27T02:33:01.567Z,11.55
2022-12-27T02:35:35.922Z,12.20
2022-12-27T02:38:17.178Z,11.65
2022-12-27T02:41:04.045Z,13.10
2022-12-27T02:43:50.958Z,12.18
2022-12-27T02:46:48.000Z,13.50
2022-12-27T02:49:42.250Z,11.77
2022-12-27T02:52:59.916Z,12.23
2022-12-27T02:55:29.555Z,11.98
2022-12-27T02:58:04.718Z,12.80
2022-12-27T03:01:05.485Z,11.82
2022-12-27T03:04:19.653Z,12.38
2022-12-27T03:06:51.104Z,12.02
2022-12-27T03:09:54.869Z,12.85
2022-12-27T03:12:45.976Z,11.70
2022-12-27T03:15:55.615Z,12.55
2022-12-27T03:18:35.455Z,12.80
2022-12-27T03:21:23.410Z,12.13
2022-12-27T03:24:12.070Z,12.50
2022-12-27T03:26:47.364Z,11.73
2022-12-27T03:29:35.819Z,12.60
2022-12-27T03:32:25.998Z,13.52
2022-12-27T03:35:00.176Z,14.13
2022-12-27T03:37:53.386Z,13.75
2022-12-27T03:40:34.842Z,12.77
2022-12-27T03:43:13.680Z,13.75
2022-12-27T03:46:34.183Z,13.25
2022-12-27T03:49:14.070Z,12.75
2022-12-27T03:51:47.341Z,12.98
2022-12-27T03:54:26.343Z,12.45
2022-12-27T03:56:58.429Z,13.68
2022-12-27T03:59:25.679Z,15.32
2022-12-27T04:01:52.468Z,15.15
2022-12-27T04:04:18.976Z,15.20
2022-12-27T04:06:45.493Z,15.75
2022-12-27T04:09:30.225Z,15.50
2022-12-27T04:12:15.881Z,16.00
2022-12-27T04:15:01.476Z,15.40
2022-12-27T04:17:46.808Z,15.15
2022-12-27T04:20:32.165Z,15.68
2022-12-27T04:23:17.542Z,15.13
2022-12-27T04:26:03.342Z,13.93
2022-12-27T04:28:48.313Z,17.92
2022-12-27T04:31:33.830Z,18.75
2022-12-27T04:34:18.994Z,18.75
2022-12-27T04:36:46.242Z,19.08
2022-12-27T04:39:13.226Z,17.88
2022-12-27T04:41:58.888Z,18.55
2022-12-27T04:44:44.031Z,17.83
2022-12-27T04:47:35.404Z,18.33
2022-12-27T04:50:26.658Z,18.70
2022-12-27T04:53:11.754Z,18.08
2022-12-27T04:55:38.153Z,17.15
2022-12-27T04:58:04.619Z,21.83
2022-12-27T05:00:50.333Z,24.45
2022-12-27T05:03:19.619Z,24.48
2022-12-27T05:05:46.909Z,25.67
2022-12-27T05:08:33.531Z,23.92
2022-12-27T05:11:18.858Z,25.35
2022-12-27T05:14:00.754Z,26.25
2022-12-27T05:16:38.345Z,25.95
2022-12-27T05:19:06.570Z,26.58
2022-12-27T05:22:01.552Z,27.88
2022-12-27T05:24:48.049Z,27.38
2022-12-27T05:27:14.545Z,27.90
2022-12-27T05:29:41.234Z,29.50
2022-12-27T05:32:12.799Z,27.52
2022-12-27T05:34:39.789Z,28.48
2022-12-27T05:37:06.368Z,28.77
2022-12-27T05:39:32.798Z,28.42
2022-12-27T05:41:59.227Z,28.90
2022-12-27T05:44:25.616Z,28.73
2022-12-27T05:46:54.052Z,27.88
2022-12-27T05:49:20.559Z,28.23
2022-12-27T05:51:47.307Z,27.83
2022-12-27T05:54:13.818Z,27.08
2022-12-27T05:56:41.296Z,27.50
2022-12-27T05:59:08.151Z,25.80
2022-12-27T06:01:34.713Z,25.88
2022-12-27T06:04:01.289Z,26.83
2022-12-27T06:06:28.937Z,26.30
2022-12-27T06:08:55.438Z,26.88
2022-12-27T06:11:21.876Z,28.00
2022-12-27T06:13:51.915Z,28.05
2022-12-27T06:16:20.464Z,29.73
2022-12-27T06:18:46.892Z,28.80
2022-12-27T06:21:22.539Z,28.90
2022-12-27T06:23:49.630Z,28.77
2022-12-27T06:26:25.046Z,28.35
2022-12-27T06:28:52.233Z,28.15
2022-12-27T06:31:20.052Z,28.58
2022-12-27T06:33:47.876Z,28.25
2022-12-27T06:36:16.951Z,27.98
2022-12-27T06:38:44.164Z,27.58
2022-12-27T06:41:13.569Z,27.08
2022-12-27T06:43:41.181Z,28.08
2022-12-27T06:46:17.142Z,26.75
2022-12-27T06:48:45.012Z,26.83
2022-12-27T06:51:12.805Z,26.17
2022-12-27T06:53:39.552Z,27.02
2022-12-27T06:56:08.458Z,25.55
2022-12-27T06:58:34.965Z,25.75
2022-12-27T07:01:12.792Z,25.92
2022-12-27T07:03:40.355Z,26.15
2022-12-27T07:06:08.392Z,27.75
2022-12-27T07:08:36.312Z,27.70
2022-12-27T07:11:06.071Z,27.38
2022-12-27T07:13:38.086Z,27.92
2022-12-27T07:16:05.927Z,27.83
2022-12-27T07:18:32.564Z,27.90
2022-12-27T07:20:59.077Z,27.98
2022-12-27T07:23:25.581Z,29.13
2022-12-27T07:25:51.959Z,28.90
2022-12-27T07:28:18.440Z,28.95
2022-12-27T07:30:44.860Z,29.20
2022-12-27T07:33:11.306Z,28.30
2022-12-27T07:35:42.187Z,29.45
2022-12-27T07:38:11.400Z,28.55
2022-12-27T07:40:37.809Z,28.77
2022-12-27T07:43:04.308Z,30.15
2022-12-27T07:45:31.033Z,29.02
2022-12-27T07:47:57.414Z,29.63
2022-12-27T07:50:23.872Z,29.02
2022-12-27T07:52:51.547Z,28.92
2022-12-27T07:55:17.957Z,28.40
2022-12-27T07:57:44.392Z,28.98
2022-12-27T08:00:11.366Z,28.13
2022-12-27T08:02:37.808Z,28.77
2022-12-27T08:05:05.795Z,28.75
2022-12-27T08:07:32.931Z,30.65
2022-12-27T08:09:59.475Z,29.33
2022-12-27T08:12:25.898Z,29.17
2022-12-27T08:14:52.332Z,29.55
2022-12-27T08:17:25.288Z,28.23
2022-12-27T08:19:52.408Z,27.63
2022-12-27T08:22:19.004Z,26.40
2022-12-27T08:24:45.623Z,27.20
2022-12-27T08:27:12.459Z,27.13
2022-12-27T08:29:39.006Z,26.23
2022-12-27T08:32:05.504Z,27.48
2022-12-27T08:34:31.896Z,27.58
2022-12-27T08:36:58.300Z,27.83
2022-12-27T08:39:27.231Z,28.70
2022-12-27T08:41:54.083Z,28.80
2022-12-27T08:44:25.661Z,28.67
2022-12-27T08:46:52.646Z,28.75
2022-12-27T08:49:19.210Z,28.77
2022-12-27T08:51:45.666Z,28.58
2022-12-27T08:54:12.127Z,28.42
2022-12-27T08:56:38.561Z,27.98
2022-12-27T08:59:05.460Z,28.50
2022-12-27T09:01:32.540Z,28.13
2022-12-27T09:03:59.466Z,27.10
2022-12-27T09:06:27.613Z,26.55
2022-12-27T09:08:55.882Z,26.40
2022-12-27T09:11:28.210Z,25.77
2022-12-27T09:13:55.430Z,26.13
2022-12-27T09:16:27.357Z,24.92
2022-12-27T09:18:56.222Z,24.40
2022-12-27T09:21:24.500Z,23.95
2022-12-27T09:23:51.629Z,23.55
2022-12-27T09:26:19.311Z,23.15
2022-12-27T09:28:46.772Z,23.58
2022-12-27T09:31:17.817Z,22.25
2022-12-27T09:33:44.857Z,22.48
2022-12-27T09:36:17.282Z,21.98
2022-12-27T09:38:44.761Z,21.20
2022-12-27T09:42:25.129Z,21.67
2022-12-27T09:44:16.477Z,21.42
2022-12-27T09:46:50.060Z,20.55
2022-12-27T09:49:31.394Z,20.95
2022-12-27T09:52:02.984Z,20.60
2022-12-27T09:54:37.195Z,20.17
2022-12-27T09:57:20.955Z,19.70
2022-12-27T09:59:52.571Z,17.83
2022-12-27T10:02:24.312Z,18.73
2022-12-27T10:05:18.690Z,17.27
2022-12-27T10:07:45.411Z,18.45
2022-12-27T10:10:40.523Z,17.52
2022-12-27T10:13:28.200Z,16.65
2022-12-27T10:16:19.739Z,15.90
2022-12-27T10:19:04.250Z,14.23
2022-12-27T10:21:34.845Z,14.48
2022-12-27T10:24:16.107Z,13.57
2022-12-27T10:26:42.535Z,13.68
2022-12-27T10:29:28.016Z,14.02
2022-12-27T10:31:54.440Z,12.80
2022-12-27T10:34:24.710Z,12.32
2022-12-27T10:41:25.891Z,11.93
2022-12-27T10:46:27.505Z,11.00
2022-12-27T10:49:26.838Z,10.88
2022-12-27T10:52:06.425Z,11.80
2022-12-27T10:54:32.867Z,12.45
2022-12-27T10:57:26.951Z,11.00
2022-12-27T11:00:16.471Z,11.10
2022-12-27T11:02:53.990Z,10.82
2022-12-27T11:05:23.470Z,10.75
2022-12-27T11:07:50.071Z,11.97
2022-12-27T11:10:20.641Z,10.27
2022-12-27T11:13:07.293Z,11.00
2022-12-27T11:15:36.477Z,11.75
2022-12-27T11:18:21.825Z,12.48
2022-12-27T11:20:55.305Z,11.45
2022-12-27T11:23:24.289Z,12.32
2022-12-27T11:25:56.771Z,12.05
2022-12-27T11:28:35.420Z,11.43
2022-12-27T11:31:11.497Z,12.35
2022-12-27T11:33:45.280Z,10.60
2022-12-27T11:36:13.859Z,10.02
2022-12-27T11:38:44.377Z,10.77
2022-12-27T11:41:24.673Z,10.55
2022-12-27T11:44:25.713Z,10.63
2022-12-27T11:46:59.404Z,10.85
2022-12-27T11:49:33.427Z,10.68
2022-12-27T11:52:05.881Z,10.75
2022-12-27T11:54:50.403Z,10.57
2022-12-27T11:57:21.763Z,11.15
2022-12-27T11:59:57.218Z,13.07
2022-12-27T12:02:50.109Z,10.65
2022-12-27T12:05:47.474Z,10.95
2022-12-27T12:08:31.204Z,11.40
2022-12-27T12:11:29.691Z,10.60
2022-12-27T12:14:23.981Z,10.75
2022-12-27T12:16:53.408Z,11.38
2022-12-27T12:19:38.174Z,11.30
2022-12-27T12:22:35.124Z,11.18
2022-12-27T12:25:18.658Z,12.25
2022-12-27T12:28:47.252Z,10.68
2022-12-27T12:31:31.452Z,11.40
2022-12-27T12:34:16.433Z,11.30
2022-12-27T12:36:52.938Z,11.50
2022-12-27T12:39:46.948Z,11.82
2022-12-27T12:42:48.738Z,11.27
2022-12-27T12:45:43.358Z,12.35
2022-12-27T12:48:20.520Z,12.07
2022-12-27T12:51:25.929Z,12.63
2022-12-27T12:53:52.296Z,12.55
2022-12-27T12:56:41.892Z,11.95
2022-12-27T12:59:39.494Z,13.18
2022-12-27T13:02:21.018Z,12.80
2022-12-27T13:05:25.189Z,12.10
2022-12-27T13:08:09.943Z,11.95
2022-12-27T13:10:51.868Z,11.60
2022-12-27T13:13:50.539Z,11.82
2022-12-27T13:16:23.834Z,13.48
2022-12-27T13:19:29.407Z,12.55
2022-12-27T13:22:34.192Z,13.55
2022-12-27T13:25:06.040Z,13.27
2022-12-27T13:27:43.181Z,12.95
2022-12-27T13:30:20.517Z,12.65
2022-12-27T13:33:08.710Z,13.35
2022-12-27T13:35:54.918Z,12.35
2022-12-27T13:38:50.769Z,12.90
2022-12-27T13:41:30.981Z,12.50
2022-12-27T13:44:45.093Z,12.82
2022-12-27T13:47:30.080Z,12.55
2022-12-27T13:50:14.655Z,12.35
2022-12-27T13:52:59.755Z,12.60
2022-12-27T13:55:45.222Z,12.57
2022-12-27T13:58:35.181Z,11.90
2022-12-27T14:01:43.451Z,12.32
2022-12-27T14:04:34.684Z,12.18
2022-12-27T14:07:22.648Z,11.80
2022-12-27T14:10:07.463Z,12.20
2022-12-27T14:12:56.329Z,12.07
2022-12-27T14:15:30.503Z,12.63
2022-12-27T14:18:03.072Z,11.70
2022-12-27T14:20:47.856Z,13.10
2022-12-27T14:23:35.589Z,11.75
2022-12-27T14:26:32.620Z,12.23
2022-12-27T14:29:16.789Z,12.27
2022-12-27T14:31:55.092Z,12.82
2022-12-27T14:34:43.272Z,11.68
2022-12-27T14:37:31.476Z,12.35
2022-12-27T14:40:19.924Z,12.35
2022-12-27T14:43:05.065Z,12.75
2022-12-27T14:46:05.765Z,11.65
2022-12-27T14:48:38.120Z,12.43
2022-12-27T14:51:59.202Z,11.52
2022-12-27T14:54:58.185Z,12.63
2022-12-27T14:57:33.692Z,12.98
2022-12-27T15:00:18.092Z,11.95
2022-12-27T15:03:17.182Z,13.27
2022-12-27T15:05:43.613Z,12.13
2022-12-27T15:08:46.299Z,11.60
2022-12-27T15:11:19.232Z,12.57
2022-12-27T15:14:12.592Z,11.48
2022-12-27T15:16:57.386Z,11.75
2022-12-27T15:20:01.410Z,12.05
2022-12-27T15:23:00.152Z,12.63
2022-12-27T15:25:57.775Z,12.25
2022-12-27T15:28:41.470Z,13.00
2022-12-27T15:31:26.445Z,13.63
2022-12-27T15:34:38.122Z,18.42
2022-12-27T15:37:05.390Z,17.02
2022-12-27T15:39:34.828Z,16.70
2022-12-27T15:42:09.169Z,13.95
2022-12-27T15:44:51.586Z,14.48
2022-12-27T15:47:49.248Z,16.10
2022-12-27T15:50:36.997Z,14.07
2022-12-27T15:53:09.511Z,47.78
2022-12-27T15:56:13.927Z,56.78
2022-12-27T15:58:40.640Z,23.40
2022-12-27T16:01:22.179Z,17.27
2022-12-27T16:03:52.839Z,17.98
2022-12-27T16:06:34.366Z,15.85
2022-12-27T16:09:23.158Z,15.15
2022-12-27T16:12:09.800Z,18.08
2022-12-27T16:14:41.965Z,18.23
2022-12-27T16:17:27.043Z,17.33
2022-12-27T16:20:01.620Z,15.77
2022-12-27T16:22:38.248Z,15.88
2022-12-27T16:25:28.490Z,17.35
2022-12-27T16:28:04.723Z,15.60
2022-12-27T16:30:43.269Z,15.57
2022-12-27T16:33:42.166Z,23.92
2022-12-27T16:36:22.867Z,24.65
2022-12-27T16:38:55.107Z,37.78
2022-12-27T16:41:24.524Z,19.05
2022-12-27T16:44:14.224Z,19.75
2022-12-27T16:46:59.288Z,15.65
2022-12-27T16:49:43.571Z,16.33
2022-12-27T16:52:12.988Z,15.70
2022-12-27T16:54:54.685Z,15.52
2022-12-27T16:57:22.249Z,15.50
2022-12-27T16:59:55.902Z,16.63
2022-12-27T17:02:44.417Z,26.00
2022-12-27T17:05:13.913Z,19.75
2022-12-27T17:07:50.077Z,22.23
2022-12-27T17:10:28.454Z,18.17
2022-12-27T17:13:03.101Z,19.70
2022-12-27T17:15:30.788Z,17.70
2022-12-27T17:18:06.468Z,16.75
2022-12-27T17:20:33.179Z,17.02
2022-12-27T17:22:59.643Z,17.60
2022-12-27T17:25:42.794Z,19.42
2022-12-27T17:28:21.983Z,18.55
2022-12-27T17:31:13.512Z,30.38
2022-12-27T17:34:02.330Z,23.40
2022-12-27T17:36:53.793Z,26.02
2022-12-27T17:39:32.396Z,23.50
2022-12-27T17:42:36.553Z,19.40
2022-12-27T17:45:09.123Z,21.98
2022-12-27T17:47:44.698Z,22.27
2022-12-27T17:50:20.929Z,21.15
2022-12-27T17:53:28.140Z,22.17
2022-12-27T17:56:21.446Z,22.05
2022-12-27T17:58:47.942Z,23.63
2022-12-27T18:01:14.659Z,25.88
2022-12-27T18:03:47.180Z,33.95
2022-12-27T18:06:18.755Z,26.50
2022-12-27T18:08:47.944Z,23.33
2022-12-27T18:11:15.572Z,25.80
2022-12-27T18:13:51.384Z,25.02
2022-12-27T18:16:24.148Z,21.73
2022-12-27T18:18:55.408Z,26.02
2022-12-27T18:21:27.385Z,23.45
2022-12-27T18:23:54.630Z,23.08
2022-12-27T18:26:42.018Z,20.35
2022-12-27T18:29:12.282Z,22.95
2022-12-27T18:34:14.817Z,23.42
2022-12-27T18:36:50.435Z,21.23
2022-12-27T18:39:30.746Z,21.10
2022-12-27T18:41:59.401Z,21.52
2022-12-27T18:44:29.603Z,22.33
2022-12-27T18:49:26.414Z,25.15
2022-12-27T18:51:55.067Z,22.80
2022-12-27T18:54:28.365Z,21.67
2022-12-27T18:57:00.175Z,21.55
2022-12-27T18:59:29.189Z,22.17
2022-12-27T19:02:01.374Z,20.42
2022-12-27T19:04:33.304Z,21.10
2022-12-27T19:07:15.381Z,81.63
2022-12-27T19:09:43.357Z,27.10
2022-12-27T19:12:34.013Z,34.08
2022-12-27T19:15:01.861Z,26.40
2022-12-27T19:17:31.079Z,26.90
2022-12-27T19:20:02.026Z,25.45
2022-12-27T19:22:48.641Z,23.40
2022-12-27T19:25:29.903Z,22.38
2022-12-27T19:28:24.629Z,23.35
2022-12-27T19:31:23.525Z,23.17
2022-12-27T19:33:56.096Z,24.90
2022-12-27T19:36:27.461Z,24.27
2022-12-27T19:38:54.078Z,24.25
2022-12-27T19:41:20.683Z,35.85
2022-12-27T19:43:47.397Z,35.00
2022-12-27T19:46:14.975Z,31.77
2022-12-27T19:48:41.661Z,26.92
2022-12-27T19:51:15.896Z,24.40
2022-12-27T19:53:44.302Z,27.00
2022-12-27T19:56:11.684Z,28.25
2022-12-27T19:58:38.115Z,28.02
2022-12-27T20:01:04.790Z,24.10
2022-12-27T20:03:31.240Z,21.65
2022-12-27T20:06:11.458Z,28.98
2022-12-27T20:08:48.334Z,29.00
2022-12-27T20:11:18.545Z,24.77
2022-12-27T20:13:45.341Z,25.83
2022-12-27T20:16:15.065Z,23.58
2022-12-27T20:18:42.459Z,25.58
2022-12-27T20:21:17.567Z,24.20
2022-12-27T20:23:44.480Z,24.05
2022-12-27T20:26:11.874Z,23.90
2022-12-27T20:28:38.451Z,22.85
2022-12-27T20:31:09.663Z,21.17
2022-12-27T20:33:36.725Z,22.63
2022-12-27T20:36:04.090Z,22.92
2022-12-27T20:38:31.419Z,22.30
2022-12-27T20:41:15.191Z,23.00
2022-12-27T20:43:42.579Z,23.10
2022-12-27T20:46:15.133Z,23.90
2022-12-27T20:48:46.222Z,29.75
2022-12-27T20:51:18.888Z,25.63
2022-12-27T20:53:49.045Z,25.85
2022-12-27T20:58:42.476Z,24.27
2022-12-27T21:01:12.150Z,26.40
2022-12-27T21:03:39.712Z,27.55
2022-12-27T21:06:13.754Z,25.73
2022-12-27T21:08:46.641Z,24.60
2022-12-27T21:11:20.608Z,26.13
2022-12-27T21:13:48.823Z,25.90
2022-12-27T21:16:19.476Z,28.50
2022-12-27T21:18:46.788Z,26.45
2022-12-27T21:21:15.437Z,26.05
2022-12-27T21:23:43.392Z,26.83
2022-12-27T21:26:11.801Z,28.58
2022-12-27T21:28:38.862Z,26.25
2022-12-27T21:31:06.149Z,27.98
2022-12-27T21:33:33.837Z,27.65
2022-12-27T21:36:06.764Z,29.80
2022-12-27T21:38:33.609Z,28.23
2022-12-27T21:41:01.414Z,30.38
2022-12-27T21:43:29.458Z,29.75
2022-12-27T21:45:57.296Z,27.83
2022-12-27T21:48:24.911Z,30.17
2022-12-27T21:50:51.568Z,30.77
2022-12-27T21:53:19.646Z,33.60
2022-12-27T21:55:46.269Z,33.45
2022-12-27T21:58:12.803Z,33.40
2022-12-27T22:00:39.189Z,33.30
2022-12-27T22:03:06.149Z,33.90
2022-12-27T22:05:33.155Z,32.88
2022-12-27T22:07:59.589Z,34.25
2022-12-27T22:10:26.028Z,31.98
2022-12-27T22:12:52.510Z,33.13
2022-12-27T22:15:18.941Z,32.78
2022-12-27T22:17:45.365Z,30.95
2022-12-27T22:20:12.371Z,31.75
2022-12-27T22:22:38.982Z,31.70
2022-12-27T22:25:06.385Z,32.05
2022-12-27T22:27:32.845Z,29.90
2022-12-27T22:29:59.255Z,30.35
2022-12-27T22:32:25.753Z,29.83
2022-12-27T22:34:52.191Z,29.88
2022-12-27T22:37:18.613Z,30.38
2022-12-27T22:39:45.065Z,26.83
2022-12-27T22:42:11.471Z,27.10
2022-12-27T22:44:37.952Z,28.55
2022-12-27T22:47:25.829Z,25.98
2022-12-27T22:49:50.921Z,26.33
2022-12-27T22:52:17.314Z,25.25
2022-12-27T22:55:03.370Z,24.48
2022-12-27T22:57:30.073Z,23.95
2022-12-27T22:59:56.475Z,23.73
2022-12-27T23:02:23.059Z,23.73
2022-12-27T23:04:49.581Z,22.42
2022-12-27T23:07:19.896Z,20.48
2022-12-27T23:12:13.622Z,21.42
2022-12-27T23:14:40.646Z,21.10
2022-12-27T23:17:07.193Z,20.23
2022-12-27T23:19:34.065Z,19.45
2022-12-27T23:22:00.451Z,19.98
2022-12-27T23:24:26.856Z,19.48
2022-12-27T23:26:53.287Z,19.52
2022-12-27T23:29:19.705Z,19.00
2022-12-27T23:31:54.071Z,17.35
2022-12-27T23:34:27.741Z,16.45
2022-12-27T23:36:55.004Z,17.63
2022-12-27T23:39:21.617Z,17.35
2022-12-27T23:41:48.250Z,17.52
2022-12-27T23:44:14.659Z,17.65
2022-12-27T23:46:41.175Z,15.93
2022-12-27T23:49:08.240Z,16.92
2022-12-27T23:51:34.677Z,15.95
2022-12-27T23:54:01.158Z,14.75
2022-12-27T23:56:30.125Z,14.95
2022-12-27T23:58:59.575Z,13.77
